Time;durP1;ratioP1;P1;durP2;ratioP2;P2;SDS_P1;SDS_P2;PMS_P1;PMS_P2;Temp;Humidity;BMP_temperature;BMP_pressure;BME280_temperature;BME280_humidity;BME280_pressure;Samples;Min_cycle;Max_cycle;Signal;HPM_P1;HPM_P2
2021/01/16 00:02:05;;;;;;;;;;;-0.10;99.90;;;;;;5026705;28;19924;-91
2021/01/16 00:04:31;;;;;;;;;;;-0.10;99.90;;;;;;5034112;28;19909;-91
2021/01/16 00:06:59;;;;;;;;;;;-0.10;99.90;;;;;;5017096;28;19913;-90
2021/01/16 00:09:24;;;;;;;;;;;-0.10;99.90;;;;;;5018277;28;19915;-90
2021/01/16 00:11:50;;;;;;;;;;;-0.10;99.90;;;;;;5020048;28;20003;-90
2021/01/16 00:14:15;;;;;;;;;;;-0.10;99.90;;;;;;5031066;28;19909;-89
2021/01/16 00:16:41;;;;;;;;;;;0.00;99.90;;;;;;5037055;28;19917;-90
2021/01/16 00:19:06;;;;;;;;;;;-0.10;99.90;;;;;;5029313;28;20319;-92
2021/01/16 00:21:32;;;;;;;;;;;-0.10;99.90;;;;;;5037144;28;20271;-88
2021/01/16 00:23:57;;;;;;;;;;;-0.10;99.90;;;;;;5025177;28;19912;-90
2021/01/16 00:26:23;;;;;;;;;;;-0.10;99.90;;;;;;5030140;28;19971;-90
2021/01/16 00:28:48;;;;;;;;;;;-0.10;99.90;;;;;;5032776;28;20325;-93
2021/01/16 00:33:49;;;;;;;;;;;-0.10;99.90;;;;;;5069550;22;19929;-83
2021/01/16 00:36:15;;;;;;;;;;;-0.10;99.90;;;;;;5131035;22;20982;-83
2021/01/16 00:38:41;;;;;;;;;;;-0.10;99.90;;;;;;5276704;22;20328;-90
2021/01/16 00:41:07;;;;;;;;;;;-0.10;99.90;;;;;;5165843;22;19978;-84
2021/01/16 00:43:35;;;;;;;;;;;-0.10;99.90;;;;;;5157608;22;19925;-84
2021/01/16 00:46:03;;;;;;;;;;;-0.10;99.90;;;;;;5079591;28;19909;-84
2021/01/16 00:48:29;;;;;;;;;;;-0.10;99.90;;;;;;5078612;28;20359;-84
2021/01/16 00:53:32;;;;;;;;;;;-0.10;99.90;;;;;;5093363;22;19931;-89
2021/01/16 00:55:57;;;;;;;;;;;-0.10;99.90;;;;;;5070546;28;19919;-89
2021/01/16 00:58:23;;;;;;;;;;;-0.10;99.90;;;;;;5075665;28;19916;-88
2021/01/16 01:00:49;;;;;;;;;;;-0.10;99.90;;;;;;5075775;28;19909;-89
2021/01/16 01:03:23;;;;;;;;;;;-0.20;99.90;;;;;;5068071;28;19913;-90
2021/01/16 01:05:49;;;;;;;;;;;-0.10;99.90;;;;;;5070368;28;19908;-90
2021/01/16 01:08:16;;;;;;;;;;;-0.10;99.90;;;;;;5075043;28;19908;-88
2021/01/16 01:10:42;;;;;;;;;;;-0.10;99.90;;;;;;5075756;28;20301;-89
2021/01/16 01:13:08;;;;;;;;;;;-0.10;99.90;;;;;;5075504;28;19921;-89
2021/01/16 01:15:34;;;;;;;;;;;-0.20;99.90;;;;;;5069036;28;19958;-89
2021/01/16 01:20:38;;;;;;;;;;;-0.10;99.90;;;;;;5104829;22;19925;-83
2021/01/16 01:23:04;;;;;;;;;;;-0.10;99.90;;;;;;5054101;28;20717;-83
2021/01/16 01:25:30;;;;;;;;;;;-0.10;99.90;;;;;;5054689;28;19912;-83
2021/01/16 01:27:56;;;;;;;;;;;-0.10;99.90;;;;;;5142408;22;19929;-89
2021/01/16 01:30:22;;;;;;;;;;;-0.10;99.90;;;;;;5022103;28;19910;-89
2021/01/16 01:32:49;;;;;;;;;;;-0.10;99.90;;;;;;5144039;23;19948;-89
2021/01/16 01:35:15;;;;;;;;;;;-0.20;99.90;;;;;;5046535;28;19994;-91
2021/01/16 01:37:42;;;;;;;;;;;-0.10;99.90;;;;;;5070382;28;19945;-89
2021/01/16 01:40:08;;;;;;;;;;;-0.10;99.90;;;;;;5038014;28;19917;-89
2021/01/16 01:42:34;;;;;;;;;;;-0.10;99.90;;;;;;5037919;28;19909;-89
2021/01/16 01:44:59;;;;;;;;;;;-0.10;99.90;;;;;;5048784;28;19916;-90
2021/01/16 01:47:25;;;;;;;;;;;-0.10;99.90;;;;;;5042428;28;19946;-88
2021/01/16 01:49:50;;;;;;;;;;;-0.10;99.90;;;;;;5041205;28;20137;-88
2021/01/16 01:52:18;;;;;;;;;;;-0.20;99.90;;;;;;5035816;28;19916;-89
2021/01/16 01:54:47;;;;;;;;;;;-0.20;99.90;;;;;;5024327;28;19923;-87
2021/01/16 01:57:14;;;;;;;;;;;-0.10;99.90;;;;;;5044322;28;19965;-89
2021/01/16 01:59:40;;;;;;;;;;;-0.10;99.90;;;;;;5044040;28;20352;-88
2021/01/16 02:04:55;;;;;;;;;;;-0.10;99.90;;;;;;5065845;23;19968;-84
2021/01/16 02:07:28;;;;;;;;;;;-0.10;99.90;;;;;;5010460;28;19909;-84
2021/01/16 02:09:54;;;;;;;;;;;-0.10;99.90;;;;;;5010419;28;20320;-84
2021/01/16 02:12:19;;;;;;;;;;;-0.10;99.90;;;;;;5008702;28;19971;-84
2021/01/16 02:14:54;;;;;;;;;;;-0.20;99.90;;;;;;5001799;28;19941;-84
2021/01/16 02:17:23;;;;;;;;;;;-0.20;99.90;;;;;;5008265;28;19913;-84
2021/01/16 02:19:57;;;;;;;;;;;-0.20;99.90;;;;;;5130779;22;19928;-84
2021/01/16 02:22:25;;;;;;;;;;;-0.20;99.90;;;;;;5012448;28;19921;-84
2021/01/16 02:25:10;;;;;;;;;;;-0.20;99.90;;;;;;5032136;28;19916;-84
2021/01/16 02:27:41;;;;;;;;;;;-0.20;99.90;;;;;;5021419;28;19909;-84
2021/01/16 02:30:07;;;;;;;;;;;-0.20;99.90;;;;;;5003680;28;19916;-84
2021/01/16 02:32:34;;;;;;;;;;;-0.20;99.90;;;;;;5022337;28;19909;-84
2021/01/16 02:35:01;;;;;;;;;;;-0.20;99.90;;;;;;5003104;28;19910;-84
2021/01/16 02:37:26;;;;;;;;;;;-0.20;99.90;;;;;;5125273;23;19986;-89
2021/01/16 02:39:55;;;;;;;;;;;-0.10;99.90;;;;;;5042549;28;19912;-88
2021/01/16 02:42:40;;;;;;;;;;;-0.20;99.90;;;;;;5036890;28;19915;-91
2021/01/16 02:45:09;;;;;;;;;;;-0.20;99.90;;;;;;4997023;28;19956;-88
2021/01/16 02:47:43;;;;;;;;;;;-0.20;99.90;;;;;;5166617;22;19925;-84
2021/01/16 02:50:11;;;;;;;;;;;-0.10;99.90;;;;;;5039214;28;19956;-84
2021/01/16 02:52:44;;;;;;;;;;;-0.10;99.90;;;;;;5032296;28;19908;-84
2021/01/16 02:55:10;;;;;;;;;;;-0.10;99.90;;;;;;5035281;28;19908;-84
2021/01/16 02:57:35;;;;;;;;;;;-0.20;99.90;;;;;;5033703;28;19923;-84
2021/01/16 03:00:01;;;;;;;;;;;-0.20;99.90;;;;;;5053061;28;20064;-84
2021/01/16 03:02:29;;;;;;;;;;;-0.20;99.90;;;;;;5035244;28;20359;-84
2021/01/16 03:04:54;;;;;;;;;;;-0.20;99.90;;;;;;5034315;28;19921;-84
2021/01/16 03:07:24;;;;;;;;;;;-0.10;99.90;;;;;;5035400;28;20459;-84
2021/01/16 03:09:50;;;;;;;;;;;-0.20;99.90;;;;;;5035171;28;19909;-84
2021/01/16 03:12:16;;;;;;;;;;;-0.20;99.90;;;;;;5056866;28;19920;-84
2021/01/16 03:14:49;;;;;;;;;;;-0.20;99.90;;;;;;5145949;23;19924;-84
2021/01/16 03:17:16;;;;;;;;;;;-0.20;99.90;;;;;;5035044;28;20370;-84
2021/01/16 03:19:50;;;;;;;;;;;-0.20;99.90;;;;;;5032366;28;19964;-84
2021/01/16 03:22:26;;;;;;;;;;;-0.20;99.90;;;;;;5029966;28;20360;-84
2021/01/16 03:24:52;;;;;;;;;;;-0.20;99.90;;;;;;5034363;28;20389;-84
2021/01/16 03:27:21;;;;;;;;;;;-0.20;99.90;;;;;;5032297;28;19999;-84
2021/01/16 03:29:46;;;;;;;;;;;-0.20;99.90;;;;;;5053261;28;19935;-84
2021/01/16 03:32:14;;;;;;;;;;;-0.20;99.90;;;;;;5030473;28;20692;-84
2021/01/16 03:34:40;;;;;;;;;;;-0.20;99.90;;;;;;5031917;28;19913;-85
2021/01/16 03:37:09;;;;;;;;;;;-0.20;99.90;;;;;;5130295;23;19925;-89
2021/01/16 03:39:35;;;;;;;;;;;-0.20;99.90;;;;;;5013659;28;19920;-88
2021/01/16 03:42:00;;;;;;;;;;;-0.10;99.90;;;;;;5013347;28;19913;-90
2021/01/16 03:44:28;;;;;;;;;;;-0.20;99.90;;;;;;5014838;28;19916;-88
2021/01/16 03:46:54;;;;;;;;;;;-0.20;99.90;;;;;;5017748;28;19909;-91
2021/01/16 03:49:22;;;;;;;;;;;-0.20;99.90;;;;;;5017708;28;20328;-90
2021/01/16 03:51:48;;;;;;;;;;;-0.20;99.90;;;;;;5017439;28;20325;-90
2021/01/16 03:54:15;;;;;;;;;;;-0.20;99.90;;;;;;5012434;28;20007;-89
2021/01/16 03:56:43;;;;;;;;;;;-0.20;99.90;;;;;;5020827;28;20004;-89
2021/01/16 03:59:09;;;;;;;;;;;-0.20;99.90;;;;;;5313770;23;19953;-88
2021/01/16 04:01:35;;;;;;;;;;;-0.20;99.90;;;;;;5266894;22;20302;-90
2021/01/16 04:04:00;;;;;;;;;;;-0.20;99.90;;;;;;5038081;28;19913;-89
2021/01/16 04:06:27;;;;;;;;;;;-0.20;99.90;;;;;;5160471;22;19929;-84
2021/01/16 04:08:52;;;;;;;;;;;-0.20;99.90;;;;;;5042761;28;19909;-84
2021/01/16 04:11:20;;;;;;;;;;;-0.20;99.90;;;;;;5047804;28;19916;-84
2021/01/16 04:13:45;;;;;;;;;;;-0.20;99.90;;;;;;5041922;28;20296;-84
2021/01/16 04:16:11;;;;;;;;;;;-0.20;99.90;;;;;;5047861;28;19919;-83
2021/01/16 04:18:39;;;;;;;;;;;-0.20;99.90;;;;;;5037021;28;19917;-84
2021/01/16 04:21:07;;;;;;;;;;;-0.20;99.90;;;;;;5052002;28;19909;-84
2021/01/16 04:23:32;;;;;;;;;;;-0.20;99.90;;;;;;5034780;28;19992;-84
2021/01/16 04:25:58;;;;;;;;;;;-0.20;99.90;;;;;;5042001;28;20024;-84
2021/01/16 04:28:24;;;;;;;;;;;-0.20;99.90;;;;;;5158572;23;20014;-83
2021/01/16 04:30:50;;;;;;;;;;;-0.20;99.90;;;;;;5067163;28;19908;-83
2021/01/16 04:33:15;;;;;;;;;;;-0.20;99.90;;;;;;5064924;28;19965;-83
2021/01/16 04:35:41;;;;;;;;;;;-0.20;99.90;;;;;;5070752;28;20390;-83
2021/01/16 04:38:11;;;;;;;;;;;-0.20;99.90;;;;;;5058538;28;19927;-83
2021/01/16 04:40:37;;;;;;;;;;;-0.20;99.90;;;;;;5071656;28;20157;-84
2021/01/16 04:43:03;;;;;;;;;;;-0.20;99.90;;;;;;5066596;28;19920;-83
2021/01/16 04:45:29;;;;;;;;;;;-0.20;99.90;;;;;;5069340;28;19908;-83
2021/01/16 04:47:56;;;;;;;;;;;-0.20;99.90;;;;;;5086005;28;20010;-83
2021/01/16 04:50:25;;;;;;;;;;;-0.20;99.90;;;;;;5066544;28;19909;-83
2021/01/16 04:52:52;;;;;;;;;;;-0.20;99.90;;;;;;5061400;28;19912;-84
2021/01/16 04:55:19;;;;;;;;;;;-0.20;99.90;;;;;;5064144;28;20000;-83
2021/01/16 04:57:45;;;;;;;;;;;-0.20;99.90;;;;;;5065323;28;19912;-83
2021/01/16 05:00:12;;;;;;;;;;;-0.20;99.90;;;;;;5066273;28;19939;-84
2021/01/16 05:02:39;;;;;;;;;;;-0.20;99.90;;;;;;5056774;28;19935;-83
2021/01/16 05:05:05;;;;;;;;;;;-0.20;99.90;;;;;;5076771;28;19908;-83
2021/01/16 05:07:31;;;;;;;;;;;-0.20;99.90;;;;;;5074017;28;19939;-83
2021/01/16 05:09:58;;;;;;;;;;;-0.20;99.90;;;;;;5067626;28;19924;-84
2021/01/16 05:12:36;;;;;;;;;;;-0.20;99.90;;;;;;5064359;28;19908;-83
2021/01/16 05:15:06;;;;;;;;;;;-0.20;99.90;;;;;;5144686;22;19932;-87
2021/01/16 05:17:33;;;;;;;;;;;-0.20;99.90;;;;;;5018695;28;19917;-89
2021/01/16 05:19:59;;;;;;;;;;;-0.20;99.90;;;;;;5018528;28;19913;-89
2021/01/16 05:22:25;;;;;;;;;;;-0.20;99.90;;;;;;5018580;28;19910;-90
2021/01/16 05:24:51;;;;;;;;;;;-0.20;99.90;;;;;;5005982;28;19910;-88
2021/01/16 05:27:19;;;;;;;;;;;-0.20;99.90;;;;;;5023729;28;19917;-89
2021/01/16 05:29:45;;;;;;;;;;;-0.20;99.90;;;;;;5014214;28;20244;-89
2021/01/16 05:32:12;;;;;;;;;;;-0.20;99.90;;;;;;5018933;28;19916;-88
2021/01/16 05:34:38;;;;;;;;;;;-0.20;99.90;;;;;;5012513;28;19917;-87
2021/01/16 05:37:03;;;;;;;;;;;-0.20;99.90;;;;;;5011330;28;19913;-87
2021/01/16 05:39:30;;;;;;;;;;;-0.20;99.90;;;;;;5013342;28;19913;-89
2021/01/16 05:41:58;;;;;;;;;;;-0.20;99.90;;;;;;5003683;28;19913;-90
2021/01/16 05:44:27;;;;;;;;;;;-0.20;99.90;;;;;;5018256;28;20024;-89
2021/01/16 05:46:53;;;;;;;;;;;-0.20;99.90;;;;;;5017866;28;19909;-89
2021/01/16 05:49:21;;;;;;;;;;;-0.20;99.90;;;;;;5143042;23;19985;-88
2021/01/16 05:51:47;;;;;;;;;;;-0.20;99.90;;;;;;5056044;28;20263;-88
2021/01/16 05:54:17;;;;;;;;;;;-0.20;99.90;;;;;;5049688;28;19915;-87
2021/01/16 05:56:43;;;;;;;;;;;-0.20;99.90;;;;;;5055066;28;19918;-87
2021/01/16 05:59:31;;;;;;;;;;;-0.20;99.90;;;;;;5056215;28;19912;-89
2021/01/16 06:02:04;;;;;;;;;;;-0.20;99.90;;;;;;5054825;28;19908;-87
2021/01/16 06:04:33;;;;;;;;;;;-0.20;99.90;;;;;;5062895;28;19955;-88
2021/01/16 06:07:07;;;;;;;;;;;-0.20;99.90;;;;;;5048754;28;19965;-89
2021/01/16 06:09:34;;;;;;;;;;;-0.20;99.90;;;;;;5059229;28;20394;-88
2021/01/16 06:12:03;;;;;;;;;;;-0.20;99.90;;;;;;5044589;28;19909;-88
2021/01/16 06:14:40;;;;;;;;;;;-0.20;99.90;;;;;;5048538;28;19951;-91
2021/01/16 06:17:06;;;;;;;;;;;-0.20;99.90;;;;;;5043000;28;19912;-89
2021/01/16 06:19:32;;;;;;;;;;;-0.30;99.90;;;;;;5050435;28;19920;-88
2021/01/16 06:22:02;;;;;;;;;;;-0.30;99.90;;;;;;5051432;28;19912;-89
2021/01/16 06:24:28;;;;;;;;;;;-0.30;99.90;;;;;;5050160;28;20006;-89
2021/01/16 06:26:55;;;;;;;;;;;-0.30;99.90;;;;;;5045134;28;19963;-88
2021/01/16 06:29:27;;;;;;;;;;;-0.20;99.90;;;;;;5065150;28;20071;-88
2021/01/16 06:31:57;;;;;;;;;;;-0.30;99.90;;;;;;5051739;28;19915;-88
2021/01/16 06:34:30;;;;;;;;;;;-0.20;99.90;;;;;;5053953;28;19916;-89
2021/01/16 06:37:12;;;;;;;;;;;-0.20;99.90;;;;;;5049655;28;19920;-88
2021/01/16 06:39:39;;;;;;;;;;;-0.20;99.90;;;;;;5044998;28;20395;-88
2021/01/16 06:42:06;;;;;;;;;;;-0.30;99.90;;;;;;5051617;28;19962;-87
2021/01/16 06:44:32;;;;;;;;;;;-0.30;99.90;;;;;;5046000;28;19932;-88
2021/01/16 06:46:58;;;;;;;;;;;-0.30;99.90;;;;;;5050298;28;20367;-87
2021/01/16 06:49:28;;;;;;;;;;;-0.30;99.90;;;;;;5049730;28;19921;-88
2021/01/16 06:51:54;;;;;;;;;;;-0.20;99.90;;;;;;5069573;28;19920;-86
2021/01/16 06:54:22;;;;;;;;;;;-0.20;99.90;;;;;;5066062;28;20351;-88
2021/01/16 06:56:58;;;;;;;;;;;-0.20;99.90;;;;;;5053809;28;19917;-89
2021/01/16 06:59:25;;;;;;;;;;;-0.20;99.90;;;;;;5068309;28;19966;-88
2021/01/16 07:01:51;;;;;;;;;;;-0.20;99.90;;;;;;5068853;28;19948;-86
2021/01/16 07:04:19;;;;;;;;;;;-0.20;99.90;;;;;;5058785;28;19955;-87
2021/01/16 07:06:48;;;;;;;;;;;-0.20;99.90;;;;;;5057323;28;19909;-87
2021/01/16 07:09:17;;;;;;;;;;;-0.20;99.90;;;;;;5062879;28;20325;-86
2021/01/16 07:11:44;;;;;;;;;;;-0.20;99.90;;;;;;5073676;28;19961;-88
2021/01/16 07:14:10;;;;;;;;;;;-0.30;99.90;;;;;;5093516;28;19908;-87
2021/01/16 07:19:11;;;;;;;;;;;-0.20;99.90;;;;;;5107007;22;20183;-85
2021/01/16 07:21:43;;;;;;;;;;;-0.20;99.90;;;;;;5071842;28;19981;-85
2021/01/16 07:24:11;;;;;;;;;;;-0.30;99.90;;;;;;5071172;28;19912;-85
2021/01/16 07:26:39;;;;;;;;;;;-0.30;99.90;;;;;;5071986;28;19909;-85
2021/01/16 07:29:07;;;;;;;;;;;-0.20;99.90;;;;;;5072144;28;19963;-85
2021/01/16 07:31:37;;;;;;;;;;;-0.20;99.90;;;;;;5070541;28;19908;-85
2021/01/16 07:34:03;;;;;;;;;;;-0.20;99.90;;;;;;5072131;28;19912;-85
2021/01/16 07:36:31;;;;;;;;;;;-0.30;99.90;;;;;;5071355;28;20397;-85
2021/01/16 07:39:02;;;;;;;;;;;-0.20;99.90;;;;;;5065425;28;19970;-85
2021/01/16 07:41:32;;;;;;;;;;;-0.20;99.90;;;;;;5071999;28;19938;-84
2021/01/16 07:43:57;;;;;;;;;;;-0.20;99.90;;;;;;5065613;28;19908;-85
2021/01/16 07:46:28;;;;;;;;;;;-0.20;99.90;;;;;;5071620;28;20359;-85
2021/01/16 07:48:58;;;;;;;;;;;-0.20;99.90;;;;;;5066672;28;20312;-85
2021/01/16 07:51:30;;;;;;;;;;;-0.20;99.90;;;;;;5064006;28;19912;-85
2021/01/16 07:53:59;;;;;;;;;;;-0.20;99.90;;;;;;5067488;28;19934;-85
2021/01/16 07:56:33;;;;;;;;;;;-0.20;99.90;;;;;;5354240;22;20901;-85
2021/01/16 07:59:16;;;;;;;;;;;-0.20;99.90;;;;;;5033476;28;19917;-85
2021/01/16 08:02:23;;;;;;;;;;;-0.20;99.90;;;;;;5033197;28;19908;-85
2021/01/16 08:04:48;;;;;;;;;;;-0.20;99.90;;;;;;4959582;28;19914;-85
2021/01/16 08:07:19;;;;;;;;;;;-0.20;99.90;;;;;;4944339;28;20066;-85
2021/01/16 08:09:44;;;;;;;;;;;-0.20;99.90;;;;;;5005468;28;19959;-85
2021/01/16 08:12:12;;;;;;;;;;;-0.20;99.90;;;;;;5031327;28;19913;-86
2021/01/16 08:14:38;;;;;;;;;;;-0.20;99.90;;;;;;5029137;28;20003;-85
2021/01/16 08:17:04;;;;;;;;;;;-0.20;99.90;;;;;;5034240;28;20423;-85
2021/01/16 08:19:32;;;;;;;;;;;-0.20;99.90;;;;;;5031300;28;19960;-85
2021/01/16 08:22:03;;;;;;;;;;;-0.20;99.90;;;;;;5031404;28;19916;-85
2021/01/16 08:24:31;;;;;;;;;;;-0.20;99.90;;;;;;5031786;28;20503;-85
2021/01/16 08:26:58;;;;;;;;;;;-0.20;99.90;;;;;;5029847;28;20383;-85
2021/01/16 08:29:26;;;;;;;;;;;-0.20;99.90;;;;;;5047740;28;19920;-86
2021/01/16 08:32:09;;;;;;;;;;;-0.20;99.90;;;;;;5036327;28;19908;-85
2021/01/16 08:34:46;;;;;;;;;;;-0.20;99.90;;;;;;5034171;28;19975;-86
2021/01/16 08:37:25;;;;;;;;;;;-0.10;99.90;;;;;;5034510;28;19913;-85
2021/01/16 08:39:51;;;;;;;;;;;-0.10;99.90;;;;;;5035693;28;19966;-85
2021/01/16 08:42:24;;;;;;;;;;;-0.20;99.90;;;;;;5031176;28;20382;-85
2021/01/16 08:44:55;;;;;;;;;;;-0.10;99.90;;;;;;5035555;28;19920;-85
2021/01/16 08:47:21;;;;;;;;;;;-0.10;99.90;;;;;;5037414;28;19916;-86
2021/01/16 08:49:50;;;;;;;;;;;-0.20;99.90;;;;;;5171587;22;19928;-85
2021/01/16 08:52:30;;;;;;;;;;;-0.20;99.90;;;;;;5066964;28;19948;-85
2021/01/16 08:55:05;;;;;;;;;;;-0.10;99.90;;;;;;5068549;28;20279;-85
2021/01/16 08:57:34;;;;;;;;;;;-0.10;99.90;;;;;;5064493;28;19999;-85
2021/01/16 09:00:26;;;;;;;;;;;-0.10;99.90;;;;;;5082131;28;19916;-85
2021/01/16 09:03:04;;;;;;;;;;;-0.10;99.90;;;;;;5061934;28;20260;-85
2021/01/16 09:05:30;;;;;;;;;;;-0.10;99.90;;;;;;5066447;28;19935;-85
2021/01/16 09:07:55;;;;;;;;;;;-0.10;99.90;;;;;;5078880;28;19947;-85
2021/01/16 09:10:22;;;;;;;;;;;0.00;99.90;;;;;;5068916;28;19959;-86
2021/01/16 09:12:48;;;;;;;;;;;-0.10;99.90;;;;;;5070671;28;19908;-85
2021/01/16 09:15:25;;;;;;;;;;;0.00;99.90;;;;;;5067863;28;19916;-85
2021/01/16 09:18:07;;;;;;;;;;;0.00;99.90;;;;;;5073595;28;20265;-85
2021/01/16 09:20:46;;;;;;;;;;;0.00;99.90;;;;;;5070886;28;20355;-85
2021/01/16 09:23:26;;;;;;;;;;;0.10;99.90;;;;;;5070033;28;19915;-85
2021/01/16 09:25:52;;;;;;;;;;;0.10;99.90;;;;;;5071210;28;19909;-86
2021/01/16 09:28:40;;;;;;;;;;;0.10;99.90;;;;;;5070523;28;19916;-85
2021/01/16 09:31:17;;;;;;;;;;;0.00;99.90;;;;;;5062400;28;19921;-85
2021/01/16 09:33:43;;;;;;;;;;;0.00;99.90;;;;;;5064355;28;19920;-85
2021/01/16 09:36:09;;;;;;;;;;;0.00;99.90;;;;;;5069884;28;19908;-85
2021/01/16 09:38:36;;;;;;;;;;;0.00;99.90;;;;;;5065776;28;19913;-85
2021/01/16 09:41:04;;;;;;;;;;;0.00;99.90;;;;;;5072301;28;19944;-85
2021/01/16 09:43:38;;;;;;;;;;;0.00;99.90;;;;;;5069026;28;20023;-85
2021/01/16 09:46:03;;;;;;;;;;;0.00;99.90;;;;;;5071007;28;19955;-85
2021/01/16 09:48:41;;;;;;;;;;;0.00;99.90;;;;;;5068096;28;19920;-85
2021/01/16 09:51:12;;;;;;;;;;;0.00;99.90;;;;;;5068783;28;19913;-85
2021/01/16 09:53:38;;;;;;;;;;;0.00;99.90;;;;;;5068246;28;19912;-85
2021/01/16 09:56:07;;;;;;;;;;;0.00;99.90;;;;;;5067077;28;20236;-86
2021/01/16 09:58:37;;;;;;;;;;;0.00;99.90;;;;;;5189935;22;20053;-86
2021/01/16 10:01:21;;;;;;;;;;;0.00;99.90;;;;;;5329704;22;20013;-89
2021/01/16 10:03:47;;;;;;;;;;;-0.10;99.90;;;;;;5026332;28;19949;-87
2021/01/16 10:06:17;;;;;;;;;;;-0.10;99.90;;;;;;5016564;28;19916;-87
2021/01/16 10:08:43;;;;;;;;;;;0.00;99.90;;;;;;5027365;28;19917;-88
2021/01/16 10:11:08;;;;;;;;;;;0.00;99.90;;;;;;5016887;28;19909;-88
2021/01/16 10:13:35;;;;;;;;;;;0.00;99.90;;;;;;5033813;28;20360;-86
2021/01/16 10:16:02;;;;;;;;;;;0.00;99.90;;;;;;5015915;28;20014;-86
2021/01/16 10:18:29;;;;;;;;;;;0.00;99.90;;;;;;5020188;28;19909;-87
2021/01/16 10:21:00;;;;;;;;;;;0.00;99.90;;;;;;5035208;28;20311;-87
2021/01/16 10:23:30;;;;;;;;;;;0.10;99.90;;;;;;5138525;22;19928;-88
2021/01/16 10:26:02;;;;;;;;;;;0.00;99.90;;;;;;5033141;28;19913;-87
2021/01/16 10:28:29;;;;;;;;;;;0.00;99.90;;;;;;5026640;28;19909;-87
2021/01/16 10:31:08;;;;;;;;;;;0.10;99.90;;;;;;5033213;28;19956;-87
2021/01/16 10:33:35;;;;;;;;;;;0.10;99.90;;;;;;5031176;28;19936;-87
2021/01/16 10:36:05;;;;;;;;;;;0.10;99.90;;;;;;5029682;28;19948;-87
2021/01/16 10:38:55;;;;;;;;;;;0.20;99.90;;;;;;5027837;28;19945;-87
2021/01/16 10:41:41;;;;;;;;;;;0.20;99.90;;;;;;5039329;28;19916;-86
2021/01/16 10:44:07;;;;;;;;;;;0.20;99.90;;;;;;5031692;28;19963;-88
2021/01/16 10:46:53;;;;;;;;;;;0.10;99.90;;;;;;5033146;28;20343;-87
2021/01/16 10:49:22;;;;;;;;;;;0.20;99.90;;;;;;5028927;28;19952;-87
2021/01/16 10:51:56;;;;;;;;;;;0.30;99.90;;;;;;5038520;28;20253;-88
2021/01/16 10:54:22;;;;;;;;;;;0.30;99.90;;;;;;5167199;22;20047;-85
2021/01/16 10:57:04;;;;;;;;;;;0.30;99.90;;;;;;5030785;28;20020;-86
2021/01/16 10:59:31;;;;;;;;;;;0.20;99.90;;;;;;5036174;28;20347;-86
2021/01/16 11:01:58;;;;;;;;;;;0.40;99.90;;;;;;5052953;28;19909;-85
2021/01/16 11:04:23;;;;;;;;;;;0.40;99.90;;;;;;5053656;28;19909;-86
2021/01/16 11:06:58;;;;;;;;;;;0.40;99.90;;;;;;5033418;28;19916;-86
2021/01/16 11:09:50;;;;;;;;;;;0.40;99.90;;;;;;5036171;28;20325;-86
2021/01/16 11:12:24;;;;;;;;;;;0.40;99.90;;;;;;5029583;28;20011;-86
2021/01/16 11:14:52;;;;;;;;;;;0.50;99.90;;;;;;5035817;28;19909;-86
2021/01/16 11:17:17;;;;;;;;;;;0.50;99.90;;;;;;5035357;28;19917;-85
2021/01/16 11:19:44;;;;;;;;;;;0.60;99.90;;;;;;5053430;28;19919;-85
2021/01/16 11:22:14;;;;;;;;;;;0.50;99.90;;;;;;5030373;28;20325;-85
2021/01/16 11:24:55;;;;;;;;;;;0.50;99.90;;;;;;5052321;28;19916;-85
2021/01/16 11:27:23;;;;;;;;;;;0.50;99.90;;;;;;5033999;28;20001;-86
2021/01/16 11:29:51;;;;;;;;;;;0.50;99.90;;;;;;5030266;28;20376;-86
2021/01/16 11:32:24;;;;;;;;;;;0.50;99.90;;;;;;5032294;28;19909;-86
2021/01/16 11:34:55;;;;;;;;;;;0.50;99.90;;;;;;5057502;28;20359;-85
2021/01/16 11:37:39;;;;;;;;;;;0.50;99.90;;;;;;5031082;28;19918;-86
2021/01/16 11:40:20;;;;;;;;;;;0.50;99.90;;;;;;5033694;28;20071;-86
2021/01/16 11:42:50;;;;;;;;;;;0.40;99.90;;;;;;5021553;28;19913;-85
2021/01/16 11:45:16;;;;;;;;;;;0.40;99.90;;;;;;5029143;28;19913;-85
2021/01/16 11:47:48;;;;;;;;;;;0.50;99.90;;;;;;5029872;28;19915;-85
2021/01/16 11:50:16;;;;;;;;;;;0.60;99.90;;;;;;5033389;28;19920;-85
2021/01/16 11:52:41;;;;;;;;;;;0.50;99.90;;;;;;5033382;28;19909;-85
2021/01/16 11:55:10;;;;;;;;;;;0.50;99.90;;;;;;5143788;22;19991;-86
2021/01/16 11:57:36;;;;;;;;;;;0.50;99.90;;;;;;5032623;28;20020;-85
2021/01/16 12:00:02;;;;;;;;;;;0.50;99.90;;;;;;5041282;28;20379;-86
2021/01/16 12:02:28;;;;;;;;;;;0.60;99.90;;;;;;5036901;28;19945;-85
2021/01/16 12:04:54;;;;;;;;;;;0.60;99.90;;;;;;5036371;28;19914;-86
2021/01/16 12:07:20;;;;;;;;;;;0.50;99.90;;;;;;5144139;22;19931;-85
2021/01/16 12:09:46;;;;;;;;;;;0.50;99.90;;;;;;5054644;28;19999;-84
2021/01/16 12:12:12;;;;;;;;;;;0.50;99.90;;;;;;5038496;28;19915;-85
2021/01/16 12:14:38;;;;;;;;;;;0.50;99.90;;;;;;5039360;28;19913;-85
2021/01/16 12:17:06;;;;;;;;;;;0.60;99.90;;;;;;5037598;28;19921;-84
2021/01/16 12:19:35;;;;;;;;;;;0.60;99.90;;;;;;5039301;28;19916;-84
2021/01/16 12:22:04;;;;;;;;;;;0.60;99.90;;;;;;5037712;28;19920;-85
2021/01/16 12:24:30;;;;;;;;;;;0.60;99.90;;;;;;5038989;28;19908;-84
2021/01/16 12:26:59;;;;;;;;;;;0.60;99.90;;;;;;5038592;28;19916;-84
2021/01/16 12:29:46;;;;;;;;;;;0.60;99.90;;;;;;5041801;28;20437;-85
2021/01/16 12:32:12;;;;;;;;;;;0.60;99.90;;;;;;5041285;28;20001;-84
2021/01/16 12:34:47;;;;;;;;;;;0.70;99.90;;;;;;5039614;28;20059;-84
2021/01/16 12:37:13;;;;;;;;;;;0.70;99.90;;;;;;5044336;28;19927;-84
2021/01/16 12:39:38;;;;;;;;;;;0.60;99.90;;;;;;5053948;28;19909;-84
2021/01/16 12:42:04;;;;;;;;;;;0.60;99.90;;;;;;5038430;28;19991;-85
2021/01/16 12:44:30;;;;;;;;;;;0.50;99.90;;;;;;5038995;28;20000;-84
2021/01/16 12:46:56;;;;;;;;;;;0.60;99.90;;;;;;5034356;28;19913;-84
2021/01/16 12:49:21;;;;;;;;;;;0.60;99.90;;;;;;5035483;28;19912;-85
2021/01/16 12:51:47;;;;;;;;;;;0.50;99.90;;;;;;5037252;28;19916;-84
2021/01/16 12:54:21;;;;;;;;;;;0.60;99.90;;;;;;5037530;28;19920;-84
2021/01/16 12:56:48;;;;;;;;;;;0.50;99.90;;;;;;5035591;28;19940;-84
2021/01/16 12:59:18;;;;;;;;;;;0.50;99.90;;;;;;5050729;28;19948;-84
2021/01/16 13:01:48;;;;;;;;;;;0.50;99.90;;;;;;5034287;28;20428;-85
2021/01/16 13:04:17;;;;;;;;;;;0.50;99.90;;;;;;5038366;28;20287;-84
2021/01/16 13:06:44;;;;;;;;;;;0.50;99.90;;;;;;5036378;28;19978;-84
2021/01/16 13:09:15;;;;;;;;;;;0.60;99.90;;;;;;5035028;28;20054;-84
2021/01/16 13:11:46;;;;;;;;;;;0.60;99.90;;;;;;5032627;28;20265;-84
2021/01/16 13:14:13;;;;;;;;;;;0.60;99.90;;;;;;5053265;28;19913;-84
2021/01/16 13:16:44;;;;;;;;;;;0.60;99.90;;;;;;5034278;28;20305;-85
2021/01/16 13:19:13;;;;;;;;;;;0.60;99.90;;;;;;5034937;28;21170;-85
2021/01/16 13:30:47;;;;;;;;;;;0.80;99.90;;;;;;5036920;22;19940;-85
2021/01/16 13:33:12;;;;;;;;;;;0.70;99.90;;;;;;5032675;28;19936;-84
2021/01/16 13:35:38;;;;;;;;;;;0.70;99.90;;;;;;5034541;28;19913;-84
2021/01/16 13:38:05;;;;;;;;;;;0.70;99.90;;;;;;5033994;28;19927;-85
2021/01/16 13:40:34;;;;;;;;;;;0.60;99.90;;;;;;5034255;28;19912;-84
2021/01/16 13:45:34;;;;;;;;;;;0.60;99.90;;;;;;5061585;28;20402;-84
2021/01/16 13:48:00;;;;;;;;;;;0.60;99.90;;;;;;5048750;28;19913;-84
2021/01/16 13:50:34;;;;;;;;;;;0.50;99.90;;;;;;5049879;28;19913;-84
2021/01/16 13:53:12;;;;;;;;;;;0.60;99.90;;;;;;5036730;28;19990;-84
2021/01/16 13:55:37;;;;;;;;;;;0.50;99.90;;;;;;5057678;28;20399;-84
2021/01/16 13:58:15;;;;;;;;;;;0.50;99.90;;;;;;5046027;28;20004;-84
2021/01/16 14:00:49;;;;;;;;;;;0.50;99.90;;;;;;5041588;28;19912;-84
2021/01/16 14:03:24;;;;;;;;;;;0.60;99.90;;;;;;5044421;28;19913;-84
2021/01/16 14:05:56;;;;;;;;;;;0.60;99.90;;;;;;5042390;28;19916;-84
2021/01/16 14:08:22;;;;;;;;;;;0.60;99.90;;;;;;5061165;28;19912;-84
2021/01/16 14:10:58;;;;;;;;;;;0.60;99.90;;;;;;5047484;28;19919;-84
2021/01/16 14:13:25;;;;;;;;;;;0.60;99.90;;;;;;5045281;28;20552;-83
2021/01/16 14:15:54;;;;;;;;;;;0.50;99.90;;;;;;5044729;28;19956;-84
2021/01/16 14:18:29;;;;;;;;;;;0.50;99.90;;;;;;5039010;28;19920;-84
2021/01/16 14:20:57;;;;;;;;;;;0.60;99.90;;;;;;5168441;22;20386;-84
2021/01/16 14:23:30;;;;;;;;;;;0.60;99.90;;;;;;5146861;22;20258;-89
2021/01/16 14:26:14;;;;;;;;;;;0.50;99.90;;;;;;5006429;28;20391;-88
2021/01/16 14:28:40;;;;;;;;;;;0.50;99.90;;;;;;5009171;28;19937;-89
2021/01/16 14:34:02;;;;;;;;;;;0.50;99.90;;;;;;5113527;23;19961;-84
2021/01/16 14:36:29;;;;;;;;;;;0.50;99.90;;;;;;5157624;22;19933;-84
2021/01/16 14:39:21;;;;;;;;;;;0.50;99.90;;;;;;5151623;22;19932;-84
2021/01/16 14:41:47;;;;;;;;;;;0.50;99.90;;;;;;5026389;28;19921;-84
2021/01/16 14:44:15;;;;;;;;;;;0.50;99.90;;;;;;5027929;28;20064;-85
2021/01/16 14:46:40;;;;;;;;;;;0.50;99.90;;;;;;5025272;28;20346;-85
2021/01/16 14:49:09;;;;;;;;;;;0.40;99.90;;;;;;5019648;28;20008;-85
2021/01/16 14:51:38;;;;;;;;;;;0.30;99.90;;;;;;5030482;28;19928;-84
2021/01/16 14:54:05;;;;;;;;;;;0.40;99.90;;;;;;5030509;28;19912;-85
2021/01/16 14:56:30;;;;;;;;;;;0.40;99.90;;;;;;5024738;28;19922;-85
2021/01/16 14:59:04;;;;;;;;;;;0.40;99.90;;;;;;5029284;28;20380;-85
2021/01/16 15:01:40;;;;;;;;;;;0.40;99.90;;;;;;5030173;28;19971;-85